ADDS METAR Data INFO
IDs: Format: Raw Decoded Include TAF

Data at: 2333 UTC 18 Jan 2018

ETSI 182320Z AUTO 26011KT //// // ////// 04/02 Q1004 ///